Time;durP1;ratioP1;P1;durP2;ratioP2;P2;SDS_P1;SDS_P2;PMS_P1;PMS_P2;Temp;Humidity;BMP_temperature;BMP_pressure;BME280_temperature;BME280_humidity;BME280_pressure;Samples;Min_cycle;Max_cycle;Signal;HPM_P1;HPM_P2
2024/01/15 00:00:42;;;;;;;18.67;4.38;;;4.10;99.90;;;;;;4882184;29;20044;-76
2024/01/15 00:03:10;;;;;;;12.95;1.80;;;4.20;99.90;;;;;;4882206;29;20366;-76
2024/01/15 00:05:37;;;;;;;9.35;1.80;;;4.20;99.90;;;;;;4881547;29;20527;-76
2024/01/15 00:08:02;;;;;;;9.43;1.85;;;4.10;99.90;;;;;;4881762;29;20551;-76
2024/01/15 00:10:31;;;;;;;14.20;1.63;;;4.10;99.90;;;;;;4881651;29;20045;-76
2024/01/15 00:12:57;;;;;;;17.50;2.10;;;4.00;99.90;;;;;;4881845;29;20056;-76
2024/01/15 00:15:22;;;;;;;23.30;3.00;;;4.00;99.90;;;;;;4881881;29;20052;-76
2024/01/15 00:17:48;;;;;;;15.45;3.05;;;4.00;99.90;;;;;;4881826;29;20048;-76
2024/01/15 00:20:14;;;;;;;18.23;3.08;;;4.00;99.90;;;;;;4881654;29;20048;-76
2024/01/15 00:22:39;;;;;;;9.73;1.70;;;4.00;99.90;;;;;;4881614;29;20040;-76
2024/01/15 00:25:05;;;;;;;19.85;3.90;;;4.10;99.90;;;;;;4898529;29;20051;-76
2024/01/15 00:27:31;;;;;;;11.70;1.88;;;4.10;99.90;;;;;;4881702;29;20085;-76
2024/01/15 00:29:56;;;;;;;11.93;1.63;;;4.20;99.90;;;;;;4882394;29;20056;-76
2024/01/15 00:32:22;;;;;;;7.80;0.90;;;4.20;99.90;;;;;;4884599;29;20521;-76
2024/01/15 00:34:47;;;;;;;17.23;2.00;;;4.20;99.90;;;;;;4885402;29;20048;-76
2024/01/15 00:37:13;;;;;;;6.53;1.60;;;4.10;99.90;;;;;;4885278;29;20084;-77
2024/01/15 00:39:39;;;;;;;5.13;1.67;;;4.10;99.90;;;;;;4885117;29;20491;-76
2024/01/15 00:42:04;;;;;;;11.35;2.88;;;4.10;99.90;;;;;;4885568;29;20044;-76
2024/01/15 00:44:30;;;;;;;7.18;1.10;;;4.10;99.90;;;;;;4885443;29;20047;-76
2024/01/15 00:46:56;;;;;;;13.20;1.67;;;4.00;99.90;;;;;;4885628;29;20066;-76
2024/01/15 00:49:21;;;;;;;22.85;2.78;;;4.10;99.90;;;;;;4884890;29;20123;-76
2024/01/15 00:51:47;;;;;;;7.05;2.33;;;4.10;99.90;;;;;;4885126;29;20064;-76
2024/01/15 00:54:13;;;;;;;12.38;1.50;;;4.20;99.90;;;;;;4885082;29;20093;-76
2024/01/15 00:56:38;;;;;;;10.43;1.65;;;4.20;99.90;;;;;;4885361;29;20052;-76
2024/01/15 00:59:04;;;;;;;9.63;2.60;;;4.20;99.90;;;;;;4885121;29;20397;-76
2024/01/15 01:01:30;;;;;;;10.35;1.65;;;4.30;99.90;;;;;;4885206;29;20048;-76
2024/01/15 01:03:58;;;;;;;7.50;1.85;;;4.30;99.90;;;;;;4884868;29;20370;-76
2024/01/15 01:06:25;;;;;;;5.82;0.98;;;4.40;99.90;;;;;;4884683;29;20104;-76
2024/01/15 01:08:51;;;;;;;10.15;1.60;;;4.50;99.90;;;;;;4884917;29;20482;-76
2024/01/15 01:11:17;;;;;;;15.18;2.00;;;4.60;99.90;;;;;;4884869;29;20152;-76
2024/01/15 01:13:42;;;;;;;9.80;1.70;;;4.60;99.90;;;;;;4884871;29;20515;-76
2024/01/15 01:16:08;;;;;;;10.98;2.20;;;4.60;99.90;;;;;;4884542;29;20131;-76
2024/01/15 01:18:34;;;;;;;17.25;1.98;;;4.70;99.90;;;;;;4884642;29;20049;-76
2024/01/15 01:21:00;;;;;;;13.30;2.70;;;4.70;99.90;;;;;;4884879;29;20060;-76
2024/01/15 01:23:26;;;;;;;14.82;3.03;;;4.70;99.90;;;;;;4884846;29;20084;-76
2024/01/15 01:25:51;;;;;;;10.00;1.20;;;4.70;99.90;;;;;;4884627;29;20103;-76
2024/01/15 01:28:17;;;;;;;12.27;2.13;;;4.70;99.90;;;;;;4884589;29;20044;-76
2024/01/15 01:30:43;;;;;;;16.30;2.30;;;4.70;99.90;;;;;;4884438;29;20049;-76
2024/01/15 01:33:08;;;;;;;12.45;2.47;;;4.70;99.90;;;;;;4884407;29;20079;-76
2024/01/15 01:35:34;;;;;;;10.75;2.33;;;4.80;99.90;;;;;;4884595;29;20140;-76
2024/01/15 01:38:03;;;;;;;10.18;2.40;;;4.80;99.90;;;;;;4884439;29;20127;-76
2024/01/15 01:40:28;;;;;;;13.90;2.45;;;4.90;99.90;;;;;;4884536;29;20169;-76
2024/01/15 01:42:54;;;;;;;11.05;2.10;;;4.90;99.90;;;;;;4883287;29;20091;-76
2024/01/15 01:45:20;;;;;;;15.68;2.67;;;4.90;99.90;;;;;;4884578;29;20044;-76
2024/01/15 01:47:45;;;;;;;16.00;2.47;;;4.90;99.90;;;;;;4884152;29;20495;-76
2024/01/15 01:50:12;;;;;;;18.15;3.17;;;4.90;99.90;;;;;;4884102;29;20051;-76
2024/01/15 01:52:38;;;;;;;16.30;3.78;;;4.90;99.90;;;;;;4884136;29;20048;-76
2024/01/15 01:55:06;;;;;;;13.55;2.42;;;4.90;99.90;;;;;;4884273;29;20044;-76
2024/01/15 01:57:34;;;;;;;10.77;1.90;;;4.90;99.90;;;;;;4883799;29;20467;-76
2024/01/15 02:00:01;;;;;;;19.33;2.72;;;4.90;99.90;;;;;;4884304;29;20044;-76
2024/01/15 02:02:27;;;;;;;16.25;2.30;;;5.00;99.90;;;;;;4884103;29;20484;-76
2024/01/15 02:04:52;;;;;;;9.05;1.15;;;5.00;99.90;;;;;;4884051;29;20144;-76
2024/01/15 02:07:19;;;;;;;4.13;0.90;;;4.90;99.90;;;;;;4883709;29;20052;-76
2024/01/15 02:09:45;;;;;;;3.20;0.95;;;4.80;99.90;;;;;;4883872;29;20405;-76
2024/01/15 02:12:11;;;;;;;6.43;1.13;;;4.70;99.90;;;;;;4884128;29;20472;-76
2024/01/15 02:14:36;;;;;;;4.95;0.75;;;4.60;99.90;;;;;;4884056;29;20114;-76
2024/01/15 02:17:02;;;;;;;7.40;1.23;;;4.50;99.90;;;;;;4883833;29;20048;-76
2024/01/15 02:19:28;;;;;;;16.13;2.15;;;4.40;99.90;;;;;;4883795;29;20060;-76
2024/01/15 02:21:53;;;;;;;26.35;2.08;;;4.40;99.90;;;;;;4883703;29;20048;-76
2024/01/15 02:24:19;;;;;;;3.97;0.93;;;4.40;99.90;;;;;;4883552;29;20087;-76
2024/01/15 02:26:45;;;;;;;7.68;0.98;;;4.40;99.90;;;;;;4883853;29;20048;-76
2024/01/15 02:29:12;;;;;;;8.10;0.80;;;4.30;99.90;;;;;;4883557;29;20140;-76
2024/01/15 02:31:40;;;;;;;12.80;2.15;;;4.20;99.90;;;;;;4883285;29;20485;-76
2024/01/15 02:34:06;;;;;;;13.50;2.60;;;4.20;99.90;;;;;;4883637;29;20069;-76
2024/01/15 02:36:31;;;;;;;15.07;2.25;;;4.20;99.90;;;;;;4883362;29;20382;-76
2024/01/15 02:38:57;;;;;;;11.02;1.48;;;4.20;99.90;;;;;;4883389;29;20055;-76
2024/01/15 02:41:23;;;;;;;12.63;2.60;;;4.30;99.90;;;;;;4883494;29;20055;-76
2024/01/15 02:43:49;;;;;;;16.73;3.20;;;4.30;99.90;;;;;;4883234;29;20049;-76
2024/01/15 02:46:16;;;;;;;19.05;2.00;;;4.30;99.90;;;;;;4883361;29;20135;-76
2024/01/15 02:48:41;;;;;;;18.05;2.53;;;4.30;99.90;;;;;;4883136;29;20131;-76
2024/01/15 02:51:07;;;;;;;16.27;3.40;;;4.40;99.90;;;;;;4882998;29;20143;-76
2024/01/15 02:53:33;;;;;;;13.57;2.03;;;4.50;99.90;;;;;;4882710;29;20056;-76
2024/01/15 02:56:01;;;;;;;14.20;2.95;;;4.50;99.90;;;;;;4883059;29;20056;-76
2024/01/15 02:58:26;;;;;;;21.98;3.72;;;4.60;99.90;;;;;;4883095;29;20543;-76
2024/01/15 03:00:52;;;;;;;11.35;3.13;;;4.60;99.90;;;;;;4882822;29;20048;-76
2024/01/15 03:03:18;;;;;;;23.00;3.17;;;4.60;99.90;;;;;;4882997;29;20041;-76
2024/01/15 03:05:43;;;;;;;18.50;2.60;;;4.70;99.90;;;;;;4899656;29;20116;-76
2024/01/15 03:08:11;;;;;;;10.38;2.58;;;4.70;99.90;;;;;;4882668;29;20143;-76
2024/01/15 03:10:37;;;;;;;29.30;3.08;;;4.70;99.90;;;;;;4882670;29;20079;-77
2024/01/15 03:13:03;;;;;;;21.02;2.28;;;4.70;99.90;;;;;;4882570;29;20107;-76
2024/01/15 03:15:31;;;;;;;13.68;1.95;;;4.70;99.90;;;;;;4882538;29;20044;-76
2024/01/15 03:17:56;;;;;;;10.52;1.98;;;4.70;99.90;;;;;;4882816;29;20044;-76
2024/01/15 03:20:22;;;;;;;12.20;2.13;;;4.70;99.90;;;;;;4882593;29;20396;-76
2024/01/15 03:22:49;;;;;;;6.57;1.58;;;4.70;99.90;;;;;;4882797;29;20056;-76
2024/01/15 03:25:14;;;;;;;7.82;1.38;;;4.70;99.90;;;;;;4882533;29;20049;-76
2024/01/15 03:27:40;;;;;;;16.70;2.67;;;4.70;99.90;;;;;;4882564;29;20056;-76
2024/01/15 03:30:06;;;;;;;14.77;2.03;;;4.80;99.90;;;;;;4882313;29;20055;-76
2024/01/15 03:32:32;;;;;;;16.05;2.35;;;4.80;99.90;;;;;;4882519;29;20045;-76
2024/01/15 03:34:57;;;;;;;3.70;1.27;;;4.70;99.90;;;;;;4899260;29;20105;-76
2024/01/15 03:37:23;;;;;;;8.15;0.88;;;4.70;99.90;;;;;;4899201;29;20482;-76
2024/01/15 03:39:48;;;;;;;10.38;2.40;;;4.70;99.90;;;;;;4899031;29;20045;-76
2024/01/15 03:42:14;;;;;;;9.15;0.98;;;4.60;99.90;;;;;;4882432;29;20135;-76
2024/01/15 03:44:40;;;;;;;11.45;2.60;;;4.50;99.90;;;;;;4882340;29;20049;-76
2024/01/15 03:47:08;;;;;;;13.82;2.72;;;4.50;99.90;;;;;;4882053;29;20181;-76
2024/01/15 03:49:34;;;;;;;11.68;2.33;;;4.60;99.90;;;;;;4882143;29;20108;-76
2024/01/15 03:52:00;;;;;;;11.55;2.63;;;4.60;99.90;;;;;;4882232;29;20135;-76
2024/01/15 03:54:26;;;;;;;13.15;3.25;;;4.50;99.90;;;;;;4882155;29;20036;-76
2024/01/15 03:56:52;;;;;;;18.30;4.03;;;4.40;99.90;;;;;;4881992;29;20048;-76
2024/01/15 03:59:17;;;;;;;38.25;5.18;;;4.30;99.90;;;;;;4881860;29;20109;-76
2024/01/15 04:01:49;;;;;;;8.60;1.58;;;4.30;99.90;;;;;;4882212;29;20059;-76
2024/01/15 04:04:15;;;;;;;6.83;1.20;;;4.20;99.90;;;;;;4881694;29;20131;-76
2024/01/15 04:06:42;;;;;;;10.55;1.23;;;4.20;99.90;;;;;;4881713;29;20139;-76
2024/01/15 04:09:07;;;;;;;4.05;1.10;;;4.10;99.90;;;;;;4898635;29;20063;-76
2024/01/15 04:11:33;;;;;;;11.18;1.48;;;4.10;99.90;;;;;;4881650;29;20049;-76
2024/01/15 04:13:59;;;;;;;12.25;2.05;;;4.10;99.90;;;;;;4882063;29;20052;-76
2024/01/15 04:16:24;;;;;;;11.80;2.45;;;4.10;99.90;;;;;;4882049;29;20465;-76
2024/01/15 04:18:50;;;;;;;14.00;1.67;;;4.10;99.90;;;;;;4881790;29;20548;-76
2024/01/15 04:21:18;;;;;;;15.35;1.60;;;4.00;99.90;;;;;;4882077;29;20048;-76
2024/01/15 04:23:44;;;;;;;9.75;1.27;;;4.00;99.90;;;;;;4881502;29;20044;-76
2024/01/15 04:26:09;;;;;;;12.18;1.45;;;4.10;99.90;;;;;;4881853;29;20112;-76
2024/01/15 04:28:35;;;;;;;8.02;1.15;;;4.10;99.90;;;;;;4881651;29;20454;-76
2024/01/15 04:31:00;;;;;;;9.23;1.35;;;4.10;99.90;;;;;;4881635;29;20087;-76
2024/01/15 04:33:26;;;;;;;14.35;1.70;;;4.10;99.90;;;;;;4881680;29;20049;-76
2024/01/15 04:35:52;;;;;;;6.57;1.20;;;4.20;99.90;;;;;;4881740;29;20049;-76
2024/01/15 04:38:17;;;;;;;8.13;2.13;;;4.20;99.90;;;;;;4881612;29;20056;-76
2024/01/15 04:40:43;;;;;;;10.65;2.22;;;4.20;99.90;;;;;;4881755;29;20492;-76
2024/01/15 04:43:11;;;;;;;10.23;2.22;;;4.30;99.90;;;;;;4881785;29;20127;-76
2024/01/15 04:45:37;;;;;;;10.18;1.33;;;4.30;99.90;;;;;;4881579;29;20048;-76
2024/01/15 04:48:03;;;;;;;5.90;1.27;;;4.30;99.90;;;;;;4881982;29;20059;-76
2024/01/15 04:50:29;;;;;;;8.20;2.10;;;4.30;99.90;;;;;;4881424;29;20047;-76
2024/01/15 04:52:54;;;;;;;8.05;1.58;;;4.20;99.90;;;;;;4881799;29;20056;-76
2024/01/15 04:55:20;;;;;;;11.20;2.15;;;4.20;99.90;;;;;;4881405;29;20123;-76
2024/01/15 04:57:45;;;;;;;8.35;2.13;;;4.20;99.90;;;;;;4881636;29;20223;-76
2024/01/15 05:00:15;;;;;;;14.63;2.05;;;4.20;99.90;;;;;;4881419;29;20049;-76
2024/01/15 05:02:40;;;;;;;12.02;1.42;;;4.20;99.90;;;;;;4881633;29;20044;-76
2024/01/15 05:05:06;;;;;;;6.28;1.23;;;4.20;99.90;;;;;;4881441;29;20396;-76
2024/01/15 05:07:36;;;;;;;7.40;1.10;;;4.20;99.90;;;;;;4881076;29;20056;-76
2024/01/15 05:10:03;;;;;;;9.63;1.67;;;4.20;99.90;;;;;;4881089;29;20104;-76
2024/01/15 05:12:29;;;;;;;15.18;2.15;;;4.20;99.90;;;;;;4881540;29;20124;-76
2024/01/15 05:14:54;;;;;;;7.95;1.40;;;4.20;99.90;;;;;;4881317;29;20477;-76
2024/01/15 05:17:20;;;;;;;10.15;1.65;;;4.30;99.90;;;;;;4900855;29;20080;-76
2024/01/15 05:19:45;;;;;;;6.57;0.93;;;4.30;99.90;;;;;;4885032;29;20131;-76
2024/01/15 05:22:11;;;;;;;32.08;2.63;;;4.30;99.90;;;;;;4884575;29;20066;-76
2024/01/15 05:24:36;;;;;;;6.95;1.17;;;4.20;99.90;;;;;;4884611;29;20104;-76
2024/01/15 05:27:02;;;;;;;17.85;1.60;;;4.30;99.90;;;;;;4884507;29;20063;-76
2024/01/15 05:29:28;;;;;;;18.92;1.77;;;4.30;99.90;;;;;;4884765;29;20086;-76
2024/01/15 05:31:53;;;;;;;8.43;1.10;;;4.30;99.90;;;;;;4884858;29;20489;-76
2024/01/15 05:34:19;;;;;;;14.00;2.10;;;4.30;99.90;;;;;;4884582;29;20047;-76
2024/01/15 05:36:47;;;;;;;13.15;2.08;;;4.20;99.90;;;;;;4884650;29;20108;-76
2024/01/15 05:39:13;;;;;;;10.77;3.03;;;4.10;99.90;;;;;;4884335;29;20060;-76
2024/01/15 05:41:38;;;;;;;13.55;2.88;;;4.00;99.90;;;;;;4901243;29;20045;-76
2024/01/15 05:44:07;;;;;;;14.02;2.83;;;4.00;99.90;;;;;;4884200;29;20056;-76
2024/01/15 05:46:33;;;;;;;6.53;1.45;;;3.90;99.90;;;;;;4884339;29;20492;-76
2024/01/15 05:48:58;;;;;;;10.30;1.50;;;3.90;99.90;;;;;;4884237;29;20092;-76
2024/01/15 05:51:24;;;;;;;10.20;1.45;;;3.90;99.90;;;;;;4884027;29;20139;-76
2024/01/15 05:53:50;;;;;;;5.47;1.58;;;4.00;99.90;;;;;;4884141;29;20049;-76
2024/01/15 05:56:15;;;;;;;13.65;1.75;;;3.90;99.90;;;;;;4884231;29;20056;-76
2024/01/15 05:58:41;;;;;;;8.30;1.55;;;3.90;99.90;;;;;;4884082;29;20401;-76
2024/01/15 06:01:07;;;;;;;11.60;2.03;;;3.90;99.90;;;;;;4883933;29;20112;-76
2024/01/15 06:03:32;;;;;;;13.95;1.30;;;3.90;99.90;;;;;;4884053;29;20041;-76
2024/01/15 06:05:59;;;;;;;7.90;1.23;;;4.00;99.90;;;;;;4883587;29;20187;-76
2024/01/15 06:08:26;;;;;;;11.00;2.83;;;4.00;99.90;;;;;;4883771;29;20058;-76
2024/01/15 06:10:52;;;;;;;15.98;3.05;;;4.00;99.90;;;;;;4883761;29;20499;-76
2024/01/15 06:13:17;;;;;;;8.20;1.30;;;3.80;99.90;;;;;;4884094;29;20044;-76
2024/01/15 06:15:43;;;;;;;10.77;1.23;;;3.60;99.90;;;;;;4883826;29;20088;-76
2024/01/15 06:18:08;;;;;;;12.40;2.25;;;3.60;99.90;;;;;;4884007;29;20048;-76
2024/01/15 06:20:34;;;;;;;14.27;2.03;;;3.50;99.90;;;;;;4883546;29;20405;-76
2024/01/15 06:23:00;;;;;;;14.38;1.83;;;3.60;99.90;;;;;;4900526;29;20052;-76
2024/01/15 06:25:25;;;;;;;11.27;2.60;;;3.70;99.90;;;;;;4883436;29;20528;-76
2024/01/15 06:27:51;;;;;;;11.88;2.38;;;3.80;99.90;;;;;;4883308;29;20045;-76
2024/01/15 06:30:16;;;;;;;19.23;3.15;;;3.80;99.90;;;;;;4883678;29;20041;-76
2024/01/15 06:32:42;;;;;;;18.55;2.47;;;3.80;99.90;;;;;;4883886;29;20052;-76
2024/01/15 06:35:10;;;;;;;14.25;1.95;;;3.80;99.90;;;;;;4883314;29;20474;-76
2024/01/15 06:37:38;;;;;;;16.63;2.55;;;3.70;99.90;;;;;;4883330;29;20044;-76
2024/01/15 06:40:05;;;;;;;10.88;1.38;;;3.70;99.90;;;;;;4883223;29;20429;-76
2024/01/15 06:42:31;;;;;;;6.88;1.08;;;3.60;99.90;;;;;;4883273;29;20048;-76
2024/01/15 06:44:56;;;;;;;5.72;1.80;;;3.60;99.90;;;;;;4883580;29;20048;-76
2024/01/15 06:47:22;;;;;;;9.35;1.35;;;3.50;99.90;;;;;;4883539;29;20450;-76
2024/01/15 06:49:48;;;;;;;22.75;2.08;;;3.40;99.90;;;;;;4883261;29;20382;-76
2024/01/15 06:52:14;;;;;;;6.30;1.23;;;3.10;99.90;;;;;;4883130;29;20056;-76
2024/01/15 06:54:39;;;;;;;3.38;0.60;;;3.10;99.90;;;;;;4883052;29;20051;-76
2024/01/15 06:57:06;;;;;;;13.57;2.63;;;3.10;99.90;;;;;;4899907;29;20041;-76
2024/01/15 06:59:32;;;;;;;7.70;0.93;;;3.00;99.90;;;;;;4883235;29;20044;-76
2024/01/15 07:01:59;;;;;;;13.32;1.27;;;3.00;99.90;;;;;;4882875;29;20392;-76
2024/01/15 07:04:24;;;;;;;5.50;1.20;;;2.90;99.90;;;;;;4882818;29;20057;-76
2024/01/15 07:06:50;;;;;;;8.43;1.50;;;2.90;99.90;;;;;;4899341;29;20059;-76
2024/01/15 07:09:16;;;;;;;7.47;2.10;;;2.80;99.90;;;;;;4882960;29;20061;-76
2024/01/15 07:11:49;;;;;;;7.55;1.02;;;2.70;99.90;;;;;;4882750;29;20079;-76
2024/01/15 07:14:14;;;;;;;11.95;1.42;;;2.70;99.90;;;;;;4883013;29;20049;-76
2024/01/15 07:16:42;;;;;;;8.13;1.15;;;2.70;99.90;;;;;;4882666;29;20052;-76
2024/01/15 07:19:08;;;;;;;14.93;2.97;;;2.60;99.90;;;;;;4882556;29;20052;-76
2024/01/15 07:21:33;;;;;;;6.97;1.55;;;2.70;99.90;;;;;;4882841;29;20048;-76
2024/01/15 07:23:59;;;;;;;6.55;1.33;;;2.90;99.90;;;;;;4882720;29;20396;-76
2024/01/15 07:26:25;;;;;;;8.05;0.90;;;2.90;99.90;;;;;;4882572;29;20659;-76
2024/01/15 07:28:51;;;;;;;5.88;0.88;;;3.00;99.90;;;;;;4882434;29;20561;-76
2024/01/15 07:31:17;;;;;;;10.30;1.30;;;3.00;99.90;;;;;;4882409;29;20089;-76
2024/01/15 07:33:43;;;;;;;5.65;1.40;;;3.10;99.90;;;;;;4882457;29;20048;-76
2024/01/15 07:36:09;;;;;;;12.55;1.17;;;3.10;99.90;;;;;;4882233;29;20412;-76
2024/01/15 07:38:34;;;;;;;14.15;1.23;;;3.20;99.90;;;;;;4882113;29;20135;-76
2024/01/15 07:41:00;;;;;;;6.97;0.95;;;3.20;99.90;;;;;;4881252;29;20045;-76
2024/01/15 07:43:27;;;;;;;15.70;2.42;;;3.20;99.90;;;;;;4882393;29;20052;-76
2024/01/15 07:45:53;;;;;;;23.27;5.47;;;3.30;99.90;;;;;;4881320;29;20048;-76
2024/01/15 07:48:19;;;;;;;11.50;1.88;;;3.40;99.90;;;;;;4881977;29;20054;-76
2024/01/15 07:50:44;;;;;;;7.88;1.50;;;3.30;99.90;;;;;;4882038;29;20059;-75
2024/01/15 07:53:10;;;;;;;11.77;2.45;;;3.30;99.90;;;;;;4881936;29;20049;-77
2024/01/15 07:55:35;;;;;;;13.55;2.72;;;3.20;99.90;;;;;;4882204;29;20049;-77
2024/01/15 07:58:01;;;;;;;19.17;2.92;;;3.10;99.90;;;;;;4881896;29;20055;-77
2024/01/15 08:00:27;;;;;;;18.75;2.47;;;3.10;99.90;;;;;;4882046;29;20477;-77
2024/01/15 08:02:53;;;;;;;9.15;2.45;;;3.10;99.90;;;;;;4882042;29;20052;-77
2024/01/15 08:05:19;;;;;;;18.67;3.55;;;3.10;99.90;;;;;;4881685;29;20059;-76
2024/01/15 08:07:45;;;;;;;15.63;2.67;;;3.10;99.90;;;;;;4881715;29;20053;-76
2024/01/15 08:10:13;;;;;;;19.55;2.95;;;3.10;99.90;;;;;;4881962;29;20049;-77
2024/01/15 08:12:39;;;;;;;11.77;2.75;;;3.10;99.90;;;;;;4881596;29;20056;-77
2024/01/15 08:15:05;;;;;;;14.32;2.78;;;3.10;99.90;;;;;;4881662;29;20059;-77
2024/01/15 08:17:32;;;;;;;13.05;1.63;;;3.10;99.90;;;;;;4881887;29;20492;-77
2024/01/15 08:19:57;;;;;;;11.18;1.88;;;3.10;99.90;;;;;;4881590;29;20424;-77
2024/01/15 08:22:23;;;;;;;22.52;1.85;;;3.10;99.90;;;;;;4881834;29;20523;-77
2024/01/15 08:24:53;;;;;;;12.88;1.95;;;3.00;99.90;;;;;;4881447;29;20191;-75
2024/01/15 08:27:19;;;;;;;11.02;1.77;;;3.00;99.90;;;;;;4881627;29;20064;-76
2024/01/15 08:29:45;;;;;;;8.40;1.60;;;2.90;99.90;;;;;;4881651;29;20060;-76
2024/01/15 08:32:13;;;;;;;13.95;2.80;;;2.80;99.90;;;;;;4881507;29;20044;-77
2024/01/15 08:34:39;;;;;;;9.90;1.75;;;2.80;99.90;;;;;;4864525;29;20049;-81
2024/01/15 08:37:05;;;;;;;9.52;1.88;;;2.80;99.90;;;;;;4849675;29;20045;-75
2024/01/15 08:39:31;;;;;;;12.32;2.03;;;2.80;99.90;;;;;;4844495;29;20045;-76
2024/01/15 08:41:59;;;;;;;11.05;1.92;;;2.80;99.90;;;;;;4844360;29;20050;-76
2024/01/15 08:44:24;;;;;;;11.45;2.05;;;2.80;99.90;;;;;;4854340;29;20085;-76
2024/01/15 08:46:50;;;;;;;12.65;1.52;;;2.90;99.90;;;;;;4862623;29;20478;-76
2024/01/15 08:49:16;;;;;;;14.43;1.55;;;3.00;99.90;;;;;;4864823;29;20056;-76
2024/01/15 08:51:41;;;;;;;6.85;1.08;;;3.00;99.90;;;;;;4864373;29;20059;-76
2024/01/15 08:54:08;;;;;;;4.10;0.73;;;3.10;99.90;;;;;;4897621;29;20049;-76
2024/01/15 08:56:34;;;;;;;10.63;1.85;;;3.10;99.90;;;;;;4866103;29;20053;-75
2024/01/15 08:58:59;;;;;;;9.77;1.42;;;3.10;99.90;;;;;;4866407;29;20481;-75
2024/01/15 09:01:25;;;;;;;4.82;1.20;;;3.10;99.90;;;;;;4866359;29;20048;-75
2024/01/15 09:03:51;;;;;;;6.00;1.23;;;3.00;99.90;;;;;;4897373;29;20053;-75
2024/01/15 09:06:16;;;;;;;5.68;0.95;;;3.10;99.90;;;;;;4865905;29;20577;-75
2024/01/15 09:08:42;;;;;;;10.98;1.60;;;3.10;99.90;;;;;;4897129;29;20136;-75
2024/01/15 09:11:08;;;;;;;17.08;3.15;;;3.20;99.90;;;;;;4865765;29;20095;-75
2024/01/15 09:13:33;;;;;;;8.73;1.05;;;3.30;99.90;;;;;;4865982;29;20470;-75
2024/01/15 09:15:59;;;;;;;21.70;2.58;;;3.40;99.90;;;;;;4866106;29;20057;-75
2024/01/15 09:18:25;;;;;;;12.18;1.48;;;3.40;99.90;;;;;;4865753;29;20382;-75
2024/01/15 09:20:54;;;;;;;4.15;1.40;;;3.50;99.90;;;;;;4866050;29;20533;-75
2024/01/15 09:23:19;;;;;;;8.45;1.42;;;3.60;99.90;;;;;;4865719;29;20504;-76
2024/01/15 09:25:45;;;;;;;6.82;1.60;;;3.60;99.90;;;;;;4865959;29;20060;-75
2024/01/15 09:28:10;;;;;;;6.10;0.50;;;3.60;99.90;;;;;;4865623;29;20052;-76
2024/01/15 09:30:36;;;;;;;10.40;1.17;;;3.40;99.90;;;;;;4864652;29;20129;-76
2024/01/15 09:33:02;;;;;;;5.68;0.77;;;3.30;99.90;;;;;;4865525;29;20382;-75
2024/01/15 09:35:27;;;;;;;4.97;1.20;;;3.20;99.90;;;;;;4865723;29;20053;-76
2024/01/15 09:37:53;;;;;;;12.55;0.93;;;3.10;99.90;;;;;;4865435;29;20053;-76
2024/01/15 09:40:20;;;;;;;5.45;0.77;;;3.20;99.90;;;;;;4865836;29;20053;-76
2024/01/15 09:42:47;;;;;;;6.97;1.92;;;3.30;99.90;;;;;;4865744;29;20518;-76
2024/01/15 09:45:13;;;;;;;4.25;0.70;;;3.20;99.90;;;;;;4896531;29;20417;-78
2024/01/15 09:47:39;;;;;;;4.55;0.47;;;3.10;99.90;;;;;;4865569;29;20111;-77
2024/01/15 09:50:05;;;;;;;6.32;2.25;;;3.00;99.90;;;;;;4896493;29;20165;-77
2024/01/15 09:52:31;;;;;;;4.88;0.90;;;3.10;99.90;;;;;;4881987;29;20194;-75
2024/01/15 09:54:58;;;;;;;5.35;0.50;;;3.10;99.90;;;;;;4865392;29;20131;-76
2024/01/15 09:57:24;;;;;;;6.43;0.70;;;3.20;99.90;;;;;;4896174;29;20533;-76
2024/01/15 09:59:53;;;;;;;4.85;1.10;;;3.30;99.90;;;;;;4865390;29;20135;-75
2024/01/15 10:02:19;;;;;;;8.60;0.88;;;3.30;99.90;;;;;;4895704;29;20064;-75
2024/01/15 10:04:45;;;;;;;7.70;1.27;;;3.40;99.90;;;;;;4864770;29;20041;-75
2024/01/15 10:07:20;;;;;;;7.65;1.77;;;3.40;99.90;;;;;;4891229;29;20071;-75
2024/01/15 10:09:47;;;;;;;5.60;0.75;;;3.50;99.90;;;;;;4882146;29;20515;-75
2024/01/15 10:12:12;;;;;;;4.45;0.88;;;3.60;99.90;;;;;;4896643;29;20446;-75
2024/01/15 10:14:38;;;;;;;9.82;2.47;;;3.80;99.90;;;;;;4880265;29;20546;-75
2024/01/15 10:17:15;;;;;;;5.53;0.90;;;3.90;99.90;;;;;;4883317;29;20075;-75
2024/01/15 10:19:41;;;;;;;4.93;0.90;;;3.90;99.90;;;;;;4883467;29;20048;-75
2024/01/15 10:22:09;;;;;;;5.47;0.65;;;4.00;99.90;;;;;;4883362;29;20045;-75
2024/01/15 10:24:39;;;;;;;4.30;0.90;;;4.00;99.90;;;;;;4883292;29;20492;-75
2024/01/15 10:27:09;;;;;;;6.60;0.65;;;3.90;99.90;;;;;;4882793;29;20051;-76
2024/01/15 10:29:35;;;;;;;4.57;0.90;;;3.80;99.90;;;;;;4874906;29;20048;-75
2024/01/15 10:32:02;;;;;;;9.23;2.05;;;3.70;99.90;;;;;;4899896;29;20052;-75
2024/01/15 10:34:28;;;;;;;5.95;0.57;;;3.70;99.90;;;;;;4882907;29;20168;-76
2024/01/15 10:36:57;;;;;;;9.57;1.02;;;3.70;99.90;;;;;;4883274;29;20135;-75
2024/01/15 10:39:23;;;;;;;13.07;3.03;;;3.70;99.90;;;;;;4882962;29;20500;-74
2024/01/15 10:41:50;;;;;;;5.63;0.60;;;3.50;99.90;;;;;;4882986;29;20085;-74
2024/01/15 10:44:16;;;;;;;7.28;0.82;;;3.40;99.90;;;;;;4883092;29;20560;-75
2024/01/15 10:46:43;;;;;;;3.92;0.85;;;3.40;99.90;;;;;;4883077;29;20397;-75
2024/01/15 10:49:10;;;;;;;6.60;1.02;;;3.30;99.90;;;;;;4882786;29;20052;-74
2024/01/15 10:51:36;;;;;;;1.67;0.63;;;3.40;99.90;;;;;;4882841;29;20044;-74
2024/01/15 10:54:02;;;;;;;5.45;0.98;;;3.40;99.90;;;;;;4883031;29;20390;-74
2024/01/15 10:56:31;;;;;;;6.07;0.80;;;3.40;99.90;;;;;;4882945;29;20053;-75
2024/01/15 10:58:57;;;;;;;5.40;0.73;;;3.40;99.90;;;;;;4899530;29;20477;-74
2024/01/15 11:01:24;;;;;;;6.28;0.82;;;3.30;99.90;;;;;;4882796;29;20053;-75
2024/01/15 11:03:49;;;;;;;6.03;0.80;;;3.30;99.90;;;;;;4899591;29;20048;-74
2024/01/15 11:06:20;;;;;;;6.15;0.70;;;3.30;99.90;;;;;;4882394;29;20109;-77
2024/01/15 11:08:50;;;;;;;8.02;1.13;;;3.30;99.90;;;;;;4882500;29;20099;-75
2024/01/15 11:11:17;;;;;;;5.93;0.70;;;3.40;99.90;;;;;;4882347;29;20045;-75
2024/01/15 11:13:46;;;;;;;2.35;0.50;;;3.50;99.90;;;;;;4882559;29;20076;-75
2024/01/15 11:16:14;;;;;;;4.53;0.47;;;3.50;99.90;;;;;;4882436;29;20052;-74
2024/01/15 11:18:41;;;;;;;6.40;1.30;;;3.50;99.90;;;;;;4882292;29;20484;-74
2024/01/15 11:21:14;;;;;;;2.75;0.98;;;3.40;99.90;;;;;;4882517;29;20094;-74
2024/01/15 11:23:46;;;;;;;4.28;1.10;;;3.30;99.90;;;;;;4882269;29;20055;-75
2024/01/15 11:26:31;;;;;;;3.75;0.65;;;3.20;99.90;;;;;;4882038;29;20109;-75
2024/01/15 11:28:59;;;;;;;8.60;1.00;;;3.10;99.90;;;;;;4882176;29;20053;-75
2024/01/15 11:31:49;;;;;;;4.85;0.93;;;3.20;99.90;;;;;;4881962;29;20053;-75
2024/01/15 11:34:15;;;;;;;2.08;0.82;;;3.20;99.90;;;;;;4872350;29;20055;-76
2024/01/15 11:36:50;;;;;;;9.68;1.23;;;3.20;99.90;;;;;;4882174;29;20123;-75
2024/01/15 11:39:27;;;;;;;4.78;0.60;;;3.30;99.90;;;;;;4881950;29;20100;-76
2024/01/15 11:42:01;;;;;;;3.55;0.60;;;3.30;99.90;;;;;;4882144;29;20075;-75
2024/01/15 11:44:27;;;;;;;13.20;1.25;;;3.30;99.90;;;;;;4881955;29;20045;-75
2024/01/15 11:46:59;;;;;;;5.18;0.75;;;3.40;99.90;;;;;;4882100;29;20044;-75
2024/01/15 11:49:47;;;;;;;8.32;0.95;;;3.40;99.90;;;;;;4881752;29;20052;-75
2024/01/15 11:52:17;;;;;;;8.10;1.13;;;3.50;99.90;;;;;;4866511;29;20049;-75
2024/01/15 11:54:48;;;;;;;7.72;0.40;;;3.50;99.90;;;;;;4862799;29;20055;-75
2024/01/15 11:57:30;;;;;;;13.55;0.70;;;3.60;99.90;;;;;;4862548;29;20380;-75
2024/01/15 11:59:56;;;;;;;4.78;0.60;;;3.60;99.90;;;;;;4861455;29;20053;-76
2024/01/15 12:02:24;;;;;;;6.28;1.05;;;3.60;99.90;;;;;;4862970;29;20055;-75
2024/01/15 12:04:50;;;;;;;8.95;1.17;;;3.70;99.90;;;;;;4879774;29;20053;-75
2024/01/15 12:07:16;;;;;;;3.28;0.70;;;3.80;99.90;;;;;;4862881;29;20049;-75
2024/01/15 12:09:44;;;;;;;6.72;1.10;;;3.80;99.90;;;;;;4863158;29;20061;-75
2024/01/15 12:12:15;;;;;;;7.13;1.88;;;3.90;99.90;;;;;;4862777;29;20129;-75
2024/01/15 12:14:41;;;;;;;8.70;1.33;;;3.90;99.90;;;;;;4863243;29;20482;-76
2024/01/15 12:17:06;;;;;;;7.38;0.90;;;3.90;99.90;;;;;;4862890;29;20048;-75
2024/01/15 12:19:32;;;;;;;10.20;2.08;;;3.90;99.90;;;;;;4862892;29;20064;-75
2024/01/15 12:21:57;;;;;;;12.73;1.75;;;4.00;99.90;;;;;;4862884;29;20045;-75
2024/01/15 12:24:23;;;;;;;7.97;2.05;;;4.00;99.90;;;;;;4863109;29;20104;-75
2024/01/15 12:26:49;;;;;;;15.57;1.90;;;4.10;99.90;;;;;;4878884;29;20088;-75
2024/01/15 12:29:17;;;;;;;14.73;1.75;;;4.00;99.90;;;;;;4879439;29;20060;-75
2024/01/15 12:31:46;;;;;;;10.35;1.88;;;4.10;99.90;;;;;;4879579;29;20049;-75
2024/01/15 12:34:11;;;;;;;5.05;1.02;;;4.10;99.90;;;;;;4862706;29;20045;-75
2024/01/15 12:36:37;;;;;;;12.18;1.70;;;4.20;99.90;;;;;;4862872;29;20059;-74
2024/01/15 12:39:03;;;;;;;8.23;1.20;;;4.10;99.90;;;;;;4862691;29;20053;-75
2024/01/15 12:41:28;;;;;;;7.93;1.70;;;4.10;99.90;;;;;;4862632;29;20063;-74
2024/01/15 12:43:54;;;;;;;12.05;2.13;;;4.20;99.90;;;;;;4862591;29;20104;-74
2024/01/15 12:46:20;;;;;;;10.15;1.35;;;4.20;99.90;;;;;;4862684;29;20227;-75
2024/01/15 12:48:45;;;;;;;7.70;1.70;;;4.20;99.90;;;;;;4862737;29;20130;-75